Terminal Aerodrome Forecast
Issued by NWS Tuscon, AZ

Home | Current Version | Previous Version | Text Only | Print | Product List | Glossary On
Versions: 1 2 3 4 5 6 7 8 9 10 11 12 13 14
000
FTUS45 KTWC 181700
TAFDUG
TAF
KDUG 181732Z 1818/1918 27007KT P6SM VCSH BKN035 BKN060
     FM190100 35006KT P6SM VCSH SCT035 BKN070
     FM190500 VRB04KT P6SM SCT050 SCT120
     FM191100 VRB03KT 2SM BR SCT020=

USA.gov is the U.S. government's official web portal to all federal, state and local government web resources and services.